createdAt,value
2022-11-10T00:00:21.689Z,8.91
2022-11-10T00:02:50.977Z,9.14
2022-11-10T00:05:18.999Z,9.24
2022-11-10T00:07:46.994Z,9.32
2022-11-10T00:10:15.565Z,9.33
2022-11-10T00:12:43.497Z,9.32
2022-11-10T00:15:29.861Z,9.37
2022-11-10T00:17:59.140Z,9.20
2022-11-10T00:20:27.084Z,9.12
2022-11-10T00:22:56.229Z,9.12
2022-11-10T00:25:24.892Z,9.16
2022-11-10T00:27:52.795Z,9.14
2022-11-10T00:30:20.765Z,9.26
2022-11-10T00:32:49.304Z,9.32
2022-11-10T00:35:18.595Z,9.30
2022-11-10T00:37:46.534Z,9.23
2022-11-10T00:40:14.466Z,9.17
2022-11-10T00:42:42.402Z,9.19
2022-11-10T00:45:11.400Z,8.97
2022-11-10T00:47:39.338Z,8.90
2022-11-10T00:50:08.430Z,9.00
2022-11-10T00:52:37.771Z,9.00
2022-11-10T00:55:06.519Z,9.03
2022-11-10T00:57:34.456Z,9.09
2022-11-10T01:00:02.415Z,9.05
2022-11-10T01:02:30.388Z,9.01
2022-11-10T01:04:58.317Z,8.98
2022-11-10T01:07:26.231Z,8.93
2022-11-10T01:09:55.535Z,8.98
2022-11-10T01:12:23.454Z,8.95
2022-11-10T01:14:51.389Z,8.94
2022-11-10T01:17:19.298Z,8.65
2022-11-10T01:19:47.246Z,8.91
2022-11-10T01:22:15.328Z,9.01
2022-11-10T01:24:43.253Z,9.00
2022-11-10T01:27:12.594Z,9.14
2022-11-10T01:29:40.505Z,9.01
2022-11-10T01:32:08.675Z,8.96
2022-11-10T01:34:36.650Z,8.92
2022-11-10T01:37:04.848Z,8.62
2022-11-10T01:39:32.772Z,8.74
2022-11-10T01:42:00.702Z,8.87
2022-11-10T01:44:30.007Z,8.82
2022-11-10T01:46:57.951Z,8.76
2022-11-10T01:49:28.322Z,8.66
2022-11-10T01:51:59.276Z,8.52
2022-11-10T01:54:30.478Z,8.51
2022-11-10T01:57:02.157Z,8.43
2022-11-10T01:59:35.316Z,8.41
2022-11-10T02:02:09.751Z,8.33
2022-11-10T02:04:38.369Z,8.24
2022-11-10T02:07:07.191Z,8.08
2022-11-10T02:09:35.243Z,8.13
2022-11-10T02:12:03.165Z,8.05
2022-11-10T02:14:32.527Z,8.07
2022-11-10T02:17:00.567Z,8.12
2022-11-10T02:19:28.907Z,8.27
2022-11-10T02:21:58.257Z,8.34
2022-11-10T02:24:26.187Z,8.36
2022-11-10T02:26:56.491Z,8.43
2022-11-10T02:29:24.960Z,8.36
2022-11-10T02:31:53.200Z,8.40
2022-11-10T02:34:21.141Z,8.39
2022-11-10T02:36:49.058Z,8.39
2022-11-10T02:39:18.372Z,8.43
2022-11-10T02:41:46.324Z,8.40
2022-11-10T02:44:14.353Z,8.36
2022-11-10T02:46:42.397Z,8.38
2022-11-10T02:49:10.332Z,8.33
2022-11-10T02:51:38.316Z,8.26
2022-11-10T02:54:06.329Z,8.07
2022-11-10T02:56:36.457Z,7.91
2022-11-10T02:59:04.983Z,7.95
2022-11-10T03:01:32.988Z,8.13
2022-11-10T03:04:00.968Z,8.15
2022-11-10T03:06:28.995Z,8.17
2022-11-10T03:08:56.901Z,8.11
2022-11-10T03:11:28.070Z,8.26
2022-11-10T03:14:02.553Z,8.23
2022-11-10T03:16:31.008Z,8.21
2022-11-10T03:18:58.934Z,8.16
2022-11-10T03:21:26.835Z,8.11
2022-11-10T03:23:54.762Z,7.95
2022-11-10T03:26:23.180Z,8.02
2022-11-10T03:28:51.119Z,7.93
2022-11-10T03:31:20.466Z,7.94
2022-11-10T03:33:48.372Z,7.96
2022-11-10T03:36:16.292Z,7.92
2022-11-10T03:38:44.259Z,7.90
2022-11-10T03:41:19.361Z,7.92
2022-11-10T03:43:48.407Z,7.89
2022-11-10T03:46:16.399Z,7.93
2022-11-10T03:48:51.877Z,7.70
2022-11-10T03:51:21.578Z,7.72
2022-11-10T03:53:49.634Z,7.64
2022-11-10T03:56:17.852Z,7.72
2022-11-10T03:58:45.780Z,7.84
2022-11-10T04:01:13.685Z,7.96
2022-11-10T04:03:41.626Z,7.94
2022-11-10T04:06:30.215Z,7.96
2022-11-10T04:09:01.155Z,7.88
2022-11-10T04:11:47.828Z,7.56
2022-11-10T04:14:33.696Z,7.47
2022-11-10T04:17:02.531Z,7.51
2022-11-10T04:19:30.724Z,7.58
2022-11-10T04:22:00.057Z,7.57
2022-11-10T04:24:28.052Z,7.70
2022-11-10T04:26:55.953Z,7.88
2022-11-10T04:29:23.892Z,7.89
2022-11-10T04:31:51.802Z,8.00
2022-11-10T04:34:19.690Z,7.91
2022-11-10T04:36:47.593Z,7.62
2022-11-10T04:39:16.889Z,7.45
2022-11-10T04:41:44.816Z,7.59
2022-11-10T04:44:12.749Z,7.72
2022-11-10T04:46:42.712Z,7.89
2022-11-10T04:49:12.138Z,7.96
2022-11-10T04:51:40.922Z,7.96
2022-11-10T04:54:09.304Z,7.90
2022-11-10T04:56:40.308Z,7.93
2022-11-10T04:59:08.225Z,7.87
2022-11-10T05:01:36.142Z,7.88
2022-11-10T05:04:05.681Z,7.83
2022-11-10T05:06:33.711Z,7.69
2022-11-10T05:09:01.662Z,7.62
2022-11-10T05:11:29.587Z,7.52
2022-11-10T05:13:58.878Z,7.54
2022-11-10T05:16:26.860Z,7.54
2022-11-10T05:18:56.117Z,7.52
2022-11-10T05:21:24.036Z,7.49
2022-11-10T05:23:51.945Z,7.48
2022-11-10T05:26:20.248Z,7.35
2022-11-10T05:28:48.221Z,7.24
2022-11-10T05:31:17.519Z,7.27
2022-11-10T05:33:45.433Z,7.28
2022-11-10T05:36:13.347Z,7.32
2022-11-10T05:38:43.688Z,7.33
2022-11-10T05:41:12.200Z,7.31
2022-11-10T05:43:40.310Z,7.38
2022-11-10T05:46:08.226Z,7.43
2022-11-10T05:48:37.577Z,7.45
2022-11-10T05:51:05.722Z,7.49
2022-11-10T05:53:33.665Z,7.58
2022-11-10T05:56:01.609Z,7.56
2022-11-10T05:58:29.639Z,7.66
2022-11-10T06:00:57.713Z,7.70
2022-11-10T06:03:26.217Z,7.85
2022-11-10T06:05:55.869Z,7.95
2022-11-10T06:08:23.901Z,7.93
2022-11-10T06:10:51.901Z,8.15
2022-11-10T06:13:20.113Z,8.22
2022-11-10T06:15:50.518Z,8.32
2022-11-10T06:18:18.781Z,8.41
2022-11-10T06:20:47.252Z,8.43
2022-11-10T06:23:16.670Z,8.61
2022-11-10T06:25:44.840Z,8.71
2022-11-10T06:28:12.952Z,8.83
2022-11-10T06:30:40.954Z,8.92
2022-11-10T06:33:08.894Z,9.12
2022-11-10T06:35:36.830Z,9.28
2022-11-10T06:38:07.506Z,9.45
2022-11-10T06:40:36.809Z,9.59
2022-11-10T06:43:04.920Z,9.71
2022-11-10T06:45:32.889Z,9.81
2022-11-10T06:48:02.541Z,9.93
2022-11-10T06:50:30.657Z,10.06
2022-11-10T06:52:59.589Z,10.16
2022-11-10T06:55:28.134Z,10.26
2022-11-10T06:57:57.682Z,10.41
2022-11-10T07:00:26.791Z,10.45
2022-11-10T07:03:02.581Z,10.60
2022-11-10T07:05:30.816Z,10.62
2022-11-10T07:08:03.677Z,10.88
2022-11-10T07:10:32.024Z,10.83
2022-11-10T07:13:02.826Z,11.03
2022-11-10T07:15:30.941Z,11.10
2022-11-10T07:17:58.890Z,11.24
2022-11-10T07:20:28.564Z,11.23
2022-11-10T07:23:00.544Z,11.40
2022-11-10T07:25:29.669Z,11.49
2022-11-10T07:27:58.799Z,11.57
2022-11-10T07:30:28.791Z,11.68
2022-11-10T07:33:01.126Z,11.75
2022-11-10T07:35:29.740Z,11.90
2022-11-10T07:37:57.945Z,11.99
2022-11-10T07:40:25.897Z,11.94
2022-11-10T07:42:53.826Z,12.16
2022-11-10T07:45:21.825Z,12.19
2022-11-10T07:47:51.513Z,11.89
2022-11-10T07:50:19.949Z,11.97
2022-11-10T07:52:47.843Z,11.94
2022-11-10T07:55:15.883Z,12.01
2022-11-10T07:57:43.811Z,11.93
2022-11-10T08:00:13.695Z,12.02
2022-11-10T08:02:41.653Z,12.25
2022-11-10T08:05:11.161Z,12.31
2022-11-10T08:07:39.171Z,12.37
2022-11-10T08:10:08.793Z,12.54
2022-11-10T08:12:36.749Z,12.53
2022-11-10T08:15:05.133Z,12.54
2022-11-10T08:17:33.064Z,12.73
2022-11-10T08:20:00.973Z,12.91
2022-11-10T08:22:30.262Z,12.73
2022-11-10T08:24:58.210Z,13.04
2022-11-10T08:27:26.156Z,12.86
2022-11-10T08:29:54.087Z,12.66
2022-11-10T08:32:22.422Z,12.75
2022-11-10T08:34:50.481Z,13.07
2022-11-10T08:37:18.385Z,13.17
2022-11-10T08:39:47.713Z,13.37
2022-11-10T08:42:15.652Z,13.03
2022-11-10T08:44:43.581Z,13.12
2022-11-10T08:47:11.498Z,12.93
2022-11-10T08:49:39.420Z,13.13
2022-11-10T08:52:07.359Z,13.24
2022-11-10T08:54:35.258Z,13.44
2022-11-10T08:57:04.577Z,13.63
2022-11-10T08:59:32.496Z,13.50
2022-11-10T09:02:00.458Z,13.55
2022-11-10T09:04:28.427Z,13.78
2022-11-10T09:06:57.922Z,13.57
2022-11-10T09:09:27.124Z,13.78
2022-11-10T09:11:55.052Z,13.93
2022-11-10T09:14:24.327Z,14.20
2022-11-10T09:16:52.246Z,14.27
2022-11-10T09:19:20.434Z,14.28
2022-11-10T09:21:48.403Z,14.46
2022-11-10T09:24:16.495Z,14.66
2022-11-10T09:26:48.201Z,14.78
2022-11-10T09:29:16.241Z,14.75
2022-11-10T09:31:46.301Z,14.85
2022-11-10T09:34:14.366Z,14.35
2022-11-10T09:36:43.043Z,14.66
2022-11-10T09:39:10.973Z,14.57
2022-11-10T09:41:45.102Z,14.74
2022-11-10T09:44:17.769Z,14.74
2022-11-10T09:46:51.361Z,14.81
2022-11-10T09:49:34.597Z,14.87
2022-11-10T09:52:04.317Z,14.97
2022-11-10T09:54:40.429Z,14.93
2022-11-10T09:57:12.608Z,14.73
2022-11-10T09:59:40.701Z,14.82
2022-11-10T10:02:20.772Z,15.08
2022-11-10T10:05:05.349Z,15.24
2022-11-10T10:07:43.367Z,15.24
2022-11-10T10:10:17.709Z,15.35
2022-11-10T10:13:06.910Z,15.34
2022-11-10T10:15:45.039Z,15.20
2022-11-10T10:18:26.981Z,15.37
2022-11-10T10:21:12.798Z,15.44
2022-11-10T10:24:08.975Z,15.52
2022-11-10T10:26:41.389Z,15.63
2022-11-10T10:29:12.272Z,15.64
2022-11-10T10:31:43.583Z,15.68
2022-11-10T10:34:17.653Z,15.74
2022-11-10T10:36:45.801Z,15.84
2022-11-10T10:39:16.304Z,15.62
2022-11-10T10:41:47.128Z,15.66
2022-11-10T10:44:17.083Z,15.77
2022-11-10T10:46:48.123Z,15.85
2022-11-10T10:49:29.606Z,15.65
2022-11-10T10:52:07.341Z,15.77
2022-11-10T10:54:37.116Z,15.71
2022-11-10T10:57:15.229Z,15.89
2022-11-10T10:59:43.171Z,15.83
2022-11-10T11:02:26.275Z,15.82
2022-11-10T11:05:13.755Z,15.86
2022-11-10T11:07:42.125Z,15.97
2022-11-10T11:10:21.101Z,16.07
2022-11-10T11:12:49.227Z,15.99
2022-11-10T11:15:25.873Z,16.09
2022-11-10T11:17:59.259Z,16.01
2022-11-10T11:20:39.324Z,15.96
2022-11-10T11:23:19.637Z,15.88
2022-11-10T11:25:50.068Z,15.88
2022-11-10T11:28:28.516Z,16.18
2022-11-10T11:31:06.954Z,16.10
2022-11-10T11:33:44.343Z,16.18
2022-11-10T11:36:25.244Z,16.33
2022-11-10T11:38:59.716Z,16.40
2022-11-10T11:41:38.563Z,16.32
2022-11-10T11:44:31.823Z,16.22
2022-11-10T11:47:10.486Z,16.20
2022-11-10T11:49:54.638Z,16.33
2022-11-10T11:52:33.396Z,16.41
2022-11-10T11:55:19.753Z,16.49
2022-11-10T11:58:05.654Z,16.21
2022-11-10T12:00:46.389Z,16.29
2022-11-10T12:03:42.815Z,16.36
2022-11-10T12:06:24.468Z,16.26
2022-11-10T12:09:02.123Z,16.27
2022-11-10T12:11:44.685Z,16.27
2022-11-10T12:14:21.928Z,16.27
2022-11-10T12:17:04.734Z,16.36
2022-11-10T12:19:46.483Z,16.32
2022-11-10T12:22:26.445Z,16.41
2022-11-10T12:25:11.684Z,16.39
2022-11-10T12:27:44.136Z,16.21
2022-11-10T12:30:14.371Z,16.50
2022-11-10T12:32:47.773Z,16.47
2022-11-10T12:35:20.121Z,16.26
2022-11-10T12:37:53.970Z,16.11
2022-11-10T12:40:26.908Z,16.07
2022-11-10T12:43:00.446Z,16.18
2022-11-10T12:45:33.389Z,16.19
2022-11-10T12:48:02.438Z,16.31
2022-11-10T12:50:40.827Z,16.26
2022-11-10T12:53:15.112Z,16.29
2022-11-10T12:55:49.551Z,16.24
2022-11-10T12:58:17.672Z,16.33
2022-11-10T13:00:56.115Z,16.28
2022-11-10T13:03:32.520Z,16.19
2022-11-10T13:06:02.511Z,16.26
2022-11-10T13:08:34.036Z,16.19
2022-11-10T13:11:07.610Z,16.12
2022-11-10T13:13:45.169Z,16.05
2022-11-10T13:16:51.299Z,16.11
2022-11-10T13:19:50.294Z,16.24
2022-11-10T13:22:37.331Z,16.21
2022-11-10T13:25:42.643Z,16.06
2022-11-10T13:28:12.901Z,16.06
2022-11-10T13:30:43.698Z,15.87
2022-11-10T13:33:31.885Z,15.79
2022-11-10T13:36:00.051Z,15.83
2022-11-10T13:38:36.851Z,15.74
2022-11-10T13:41:23.332Z,15.76
2022-11-10T13:43:54.466Z,15.64
2022-11-10T13:46:32.169Z,15.64
2022-11-10T13:49:28.908Z,15.68
2022-11-10T13:52:06.495Z,15.52
2022-11-10T13:54:56.694Z,15.54
2022-11-10T13:57:30.820Z,15.39
2022-11-10T14:00:02.570Z,15.09
2022-11-10T14:02:51.503Z,15.21
2022-11-10T14:05:53.018Z,15.29
2022-11-10T14:08:25.130Z,15.32
2022-11-10T14:10:58.669Z,15.28
2022-11-10T14:13:33.834Z,15.27
2022-11-10T14:16:03.573Z,15.27
2022-11-10T14:18:41.283Z,15.26
2022-11-10T14:21:20.865Z,15.20
2022-11-10T14:23:52.158Z,15.15
2022-11-10T14:26:27.000Z,15.09
2022-11-10T14:28:54.940Z,15.08
2022-11-10T14:31:26.985Z,14.92
2022-11-10T14:33:57.208Z,14.91
2022-11-10T14:36:26.404Z,14.86
2022-11-10T14:38:54.808Z,14.66
2022-11-10T14:41:24.049Z,14.62
2022-11-10T14:44:03.116Z,14.70
2022-11-10T14:46:32.461Z,14.68
2022-11-10T14:49:01.482Z,14.60
2022-11-10T14:51:30.845Z,14.56
2022-11-10T14:53:59.503Z,14.44
2022-11-10T14:56:30.489Z,14.37
2022-11-10T14:58:59.921Z,14.25
2022-11-10T15:01:33.738Z,14.08
2022-11-10T15:04:05.993Z,13.99
2022-11-10T15:06:34.958Z,13.74
2022-11-10T15:09:14.265Z,13.79
2022-11-10T15:11:49.522Z,13.68
2022-11-10T15:14:33.312Z,13.59
2022-11-10T15:17:02.540Z,13.43
2022-11-10T15:19:33.442Z,13.46
2022-11-10T15:22:07.900Z,13.40
2022-11-10T15:24:35.874Z,13.25
2022-11-10T15:27:03.815Z,13.09
2022-11-10T15:29:32.169Z,13.05
2022-11-10T15:32:00.107Z,12.97
2022-11-10T15:34:41.493Z,12.83
2022-11-10T15:37:30.503Z,12.79
2022-11-10T15:40:29.506Z,12.63
2022-11-10T15:43:11.434Z,12.58
2022-11-10T15:45:40.243Z,12.49
2022-11-10T15:48:13.400Z,12.41
2022-11-10T15:50:43.669Z,12.35
2022-11-10T15:53:15.557Z,12.28
2022-11-10T15:55:44.440Z,12.15
2022-11-10T15:58:14.968Z,12.11
2022-11-10T16:00:42.985Z,12.12
2022-11-10T16:03:12.504Z,12.13
2022-11-10T16:05:42.279Z,12.06
2022-11-10T16:08:13.943Z,11.98
2022-11-10T16:10:42.948Z,11.96
2022-11-10T16:13:13.666Z,11.93
2022-11-10T16:15:42.700Z,11.82
2022-11-10T16:18:14.045Z,11.73
2022-11-10T16:20:43.701Z,11.74
2022-11-10T16:23:11.620Z,11.70
2022-11-10T16:25:40.196Z,11.69
2022-11-10T16:28:08.504Z,11.66
2022-11-10T16:30:36.593Z,11.53
2022-11-10T16:33:04.652Z,11.47
2022-11-10T16:35:32.697Z,11.53
2022-11-10T16:38:02.026Z,11.48
2022-11-10T16:40:29.990Z,11.48
2022-11-10T16:42:58.041Z,11.43
2022-11-10T16:45:30.232Z,11.41
2022-11-10T16:47:58.965Z,11.33
2022-11-10T16:50:33.379Z,11.31
2022-11-10T16:53:05.593Z,11.25
2022-11-10T16:55:33.676Z,11.18
2022-11-10T16:58:01.619Z,11.14
2022-11-10T17:00:29.540Z,11.12
2022-11-10T17:03:03.673Z,11.09
2022-11-10T17:05:31.423Z,11.05
2022-11-10T17:08:00.169Z,11.00
2022-11-10T17:10:29.578Z,11.02
2022-11-10T17:12:57.500Z,10.99
2022-11-10T17:15:25.622Z,10.90
2022-11-10T17:17:58.848Z,10.87
2022-11-10T17:20:35.448Z,10.83
2022-11-10T17:23:05.161Z,10.83
2022-11-10T17:25:37.181Z,10.77
2022-11-10T17:28:05.405Z,10.78
2022-11-10T17:30:33.356Z,10.78
2022-11-10T17:33:05.661Z,10.78
2022-11-10T17:35:40.086Z,10.72
2022-11-10T17:38:12.777Z,10.46
2022-11-10T17:40:43.397Z,10.61
2022-11-10T17:43:13.292Z,10.58
2022-11-10T17:45:41.413Z,10.53
2022-11-10T17:48:10.123Z,10.48
2022-11-10T17:50:40.092Z,10.48
2022-11-10T17:53:16.586Z,10.40
2022-11-10T17:55:46.350Z,10.45
2022-11-10T17:58:17.953Z,10.44
2022-11-10T18:00:46.715Z,10.38
2022-11-10T18:03:16.094Z,10.43
2022-11-10T18:05:44.619Z,10.40
2022-11-10T18:08:13.044Z,10.36
2022-11-10T18:10:43.281Z,10.37
2022-11-10T18:13:13.043Z,10.36
2022-11-10T18:15:43.241Z,10.30
2022-11-10T18:18:13.253Z,10.24
2022-11-10T18:20:41.623Z,10.15
2022-11-10T18:23:12.433Z,10.10
2022-11-10T18:25:41.539Z,10.07
2022-11-10T18:28:13.334Z,9.95
2022-11-10T18:30:43.734Z,9.94
2022-11-10T18:33:12.908Z,9.99
2022-11-10T18:35:41.692Z,10.00
2022-11-10T18:38:13.300Z,10.01
2022-11-10T18:40:41.246Z,10.07
2022-11-10T18:43:09.191Z,10.05
2022-11-10T18:45:37.297Z,10.01
2022-11-10T18:48:07.517Z,9.99
2022-11-10T18:50:38.402Z,9.93
2022-11-10T18:53:06.343Z,9.91
2022-11-10T18:55:34.259Z,9.80
2022-11-10T18:58:02.168Z,9.70
2022-11-10T19:00:30.080Z,9.81
2022-11-10T19:02:58.032Z,9.83
2022-11-10T19:05:27.330Z,9.87
2022-11-10T19:07:55.248Z,9.88
2022-11-10T19:10:23.153Z,9.87
2022-11-10T19:12:51.096Z,10.00
2022-11-10T19:15:19.229Z,10.00
2022-11-10T19:17:47.138Z,9.99
2022-11-10T19:20:16.366Z,10.03
2022-11-10T19:22:45.673Z,9.99
2022-11-10T19:25:13.614Z,10.07
2022-11-10T19:27:41.549Z,10.16
2022-11-10T19:30:10.842Z,10.11
2022-11-10T19:32:38.745Z,10.16
2022-11-10T19:35:07.404Z,10.10
2022-11-10T19:37:35.874Z,10.10
2022-11-10T19:40:05.764Z,10.07
2022-11-10T19:42:33.813Z,10.03
2022-11-10T19:45:02.758Z,10.05
2022-11-10T19:47:30.988Z,10.05
2022-11-10T19:49:58.918Z,9.96
2022-11-10T19:52:26.916Z,10.00
2022-11-10T19:54:54.865Z,9.95
2022-11-10T19:57:24.354Z,9.93
2022-11-10T19:59:52.313Z,9.95
2022-11-10T20:02:20.244Z,9.97
2022-11-10T20:05:05.808Z,10.00
2022-11-10T20:07:51.088Z,9.99
2022-11-10T20:10:19.278Z,10.01
2022-11-10T20:12:48.592Z,10.00
2022-11-10T20:15:16.681Z,9.99
2022-11-10T20:17:44.604Z,9.95
2022-11-10T20:20:12.565Z,9.87
2022-11-10T20:22:40.533Z,9.79
2022-11-10T20:25:09.226Z,9.77
2022-11-10T20:27:37.177Z,9.84
2022-11-10T20:30:07.597Z,9.80
2022-11-10T20:32:35.562Z,9.78
2022-11-10T20:35:03.549Z,9.80
2022-11-10T20:37:33.867Z,9.88
2022-11-10T20:40:02.574Z,9.86
2022-11-10T20:42:30.668Z,9.95
2022-11-10T20:44:58.746Z,9.97
2022-11-10T20:47:29.531Z,9.95
2022-11-10T20:49:57.575Z,9.93
2022-11-10T20:52:25.885Z,9.88
2022-11-10T20:54:53.968Z,9.82
2022-11-10T20:57:21.902Z,9.82
2022-11-10T20:59:49.802Z,9.79
2022-11-10T21:02:17.754Z,9.82
2022-11-10T21:04:47.850Z,9.88
2022-11-10T21:07:15.870Z,9.89
2022-11-10T21:09:43.840Z,9.86
2022-11-10T21:12:31.993Z,9.76
2022-11-10T21:14:59.904Z,9.69
2022-11-10T21:17:27.825Z,9.67
2022-11-10T21:19:57.125Z,9.57
2022-11-10T21:22:25.119Z,9.52
2022-11-10T21:24:53.054Z,9.49
2022-11-10T21:27:20.975Z,9.49
2022-11-10T21:29:48.880Z,9.52
2022-11-10T21:32:16.905Z,9.52
2022-11-10T21:34:47.230Z,9.49
2022-11-10T21:37:16.568Z,9.42
2022-11-10T21:39:45.615Z,9.42
2022-11-10T21:42:13.510Z,9.44
2022-11-10T21:44:41.418Z,9.36
2022-11-10T21:47:09.941Z,9.22
2022-11-10T21:49:37.844Z,9.08
2022-11-10T21:52:06.105Z,9.15
2022-11-10T21:54:35.406Z,9.33
2022-11-10T21:57:03.393Z,9.37
2022-11-10T21:59:31.327Z,9.41
2022-11-10T22:01:59.393Z,9.45
2022-11-10T22:04:27.353Z,9.48
2022-11-10T22:07:12.968Z,9.53
2022-11-10T22:09:59.962Z,9.53
2022-11-10T22:12:45.381Z,9.53
2022-11-10T22:15:33.445Z,9.41
2022-11-10T22:18:18.741Z,9.48
2022-11-10T22:20:46.895Z,9.48
2022-11-10T22:23:14.801Z,9.45
2022-11-10T22:25:44.113Z,9.40
2022-11-10T22:28:12.022Z,9.25
2022-11-10T22:30:39.923Z,9.31
2022-11-10T22:33:21.917Z,9.40
2022-11-10T22:35:57.999Z,9.50
2022-11-10T22:38:26.006Z,9.49
2022-11-10T22:41:15.702Z,9.48
2022-11-10T22:44:01.401Z,9.38
2022-11-10T22:46:29.389Z,9.37
2022-11-10T22:48:57.344Z,9.29
2022-11-10T22:51:26.980Z,9.26
2022-11-10T22:53:54.916Z,9.17
2022-11-10T22:56:24.232Z,8.90
2022-11-10T22:58:56.972Z,9.03
2022-11-10T23:01:27.497Z,9.06
2022-11-10T23:03:55.539Z,9.05
2022-11-10T23:06:23.458Z,9.06
2022-11-10T23:08:51.438Z,9.03
2022-11-10T23:11:21.268Z,8.97
2022-11-10T23:13:51.069Z,9.04
2022-11-10T23:16:21.134Z,9.05
2022-11-10T23:18:50.805Z,9.04
2022-11-10T23:21:20.705Z,9.05
2022-11-10T23:23:49.411Z,9.00
2022-11-10T23:26:19.604Z,8.95
2022-11-10T23:28:48.059Z,8.92
2022-11-10T23:31:19.081Z,8.86
2022-11-10T23:33:48.497Z,8.80
2022-11-10T23:36:18.466Z,8.79
2022-11-10T23:38:47.233Z,8.52
2022-11-10T23:41:17.691Z,7.88
2022-11-10T23:43:45.686Z,7.75
2022-11-10T23:46:14.118Z,8.00
2022-11-10T23:48:43.497Z,8.15
2022-11-10T23:51:12.931Z,8.26
2022-11-10T23:53:41.180Z,8.37
2022-11-10T23:56:12.793Z,8.39
2022-11-10T23:58:41.463Z,8.36
